createdAt,value
2022-11-22T00:02:21.630Z,0.70
2022-11-22T00:04:48.139Z,0.77
2022-11-22T00:07:14.568Z,0.63
2022-11-22T00:09:40.961Z,0.78
2022-11-22T00:12:08.339Z,0.62
2022-11-22T00:14:34.707Z,0.68
2022-11-22T00:17:01.068Z,0.86
2022-11-22T00:19:27.617Z,0.90
2022-11-22T00:21:54.116Z,0.57
2022-11-22T00:24:20.426Z,0.75
2022-11-22T00:26:46.835Z,0.82
2022-11-22T00:29:13.151Z,0.71
2022-11-22T00:31:39.479Z,0.68
2022-11-22T00:34:05.860Z,0.65
2022-11-22T00:36:32.222Z,0.76
2022-11-22T00:38:58.572Z,0.84
2022-11-22T00:41:24.917Z,0.81
2022-11-22T00:43:51.239Z,0.65
2022-11-22T00:46:17.605Z,0.80
2022-11-22T00:48:43.935Z,0.73
2022-11-22T00:51:10.273Z,0.67
2022-11-22T00:53:36.667Z,0.60
2022-11-22T00:56:03.130Z,0.47
2022-11-22T00:58:29.469Z,0.50
2022-11-22T01:00:56.949Z,0.51
2022-11-22T01:03:23.495Z,0.28
2022-11-22T01:05:49.918Z,0.46
2022-11-22T01:08:16.276Z,0.37
2022-11-22T01:10:42.705Z,0.60
2022-11-22T01:13:09.055Z,0.73
2022-11-22T01:15:35.481Z,0.58
2022-11-22T01:18:01.930Z,0.32
2022-11-22T01:20:28.502Z,0.23
2022-11-22T01:22:54.866Z,0.29
2022-11-22T01:25:22.133Z,0.64
2022-11-22T01:27:48.544Z,0.17
2022-11-22T01:30:14.993Z,0.24
2022-11-22T01:32:44.081Z,0.28
2022-11-22T01:35:10.839Z,0.16
2022-11-22T01:37:37.397Z,0.21
2022-11-22T01:40:03.754Z,0.29
2022-11-22T01:42:30.128Z,0.22
2022-11-22T01:44:56.518Z,0.20
2022-11-22T01:47:22.919Z,0.43
2022-11-22T01:49:49.377Z,0.26
2022-11-22T01:52:15.724Z,0.22
2022-11-22T01:54:42.221Z,0.33
2022-11-22T01:57:08.621Z,0.22
2022-11-22T01:59:35.115Z,0.22
2022-11-22T02:02:01.478Z,0.23
2022-11-22T02:04:28.053Z,0.38
2022-11-22T02:06:54.398Z,0.30
2022-11-22T02:09:20.761Z,0.35
2022-11-22T02:11:47.143Z,0.51
2022-11-22T02:14:13.510Z,0.62
2022-11-22T02:16:39.874Z,0.71
2022-11-22T02:19:06.184Z,0.58
2022-11-22T02:21:32.545Z,0.70
2022-11-22T02:23:58.893Z,0.66
2022-11-22T02:26:27.581Z,0.69
2022-11-22T02:28:53.898Z,0.65
2022-11-22T02:31:21.026Z,0.58
2022-11-22T02:33:47.423Z,0.60
2022-11-22T02:36:13.835Z,0.66
2022-11-22T02:38:40.173Z,0.58
2022-11-22T02:41:06.546Z,0.62
2022-11-22T02:43:32.893Z,0.52
2022-11-22T02:45:59.371Z,0.51
2022-11-22T02:48:25.749Z,0.56
2022-11-22T02:50:52.126Z,0.52
2022-11-22T02:53:20.652Z,0.51
2022-11-22T02:55:47.191Z,0.48
2022-11-22T02:58:13.550Z,0.45
2022-11-22T03:00:39.975Z,0.44
2022-11-22T03:03:06.523Z,0.33
2022-11-22T03:05:33.027Z,0.45
2022-11-22T03:07:59.379Z,0.63
2022-11-22T03:10:25.696Z,0.65
2022-11-22T03:12:52.099Z,0.70
2022-11-22T03:15:18.505Z,0.76
2022-11-22T03:17:44.942Z,0.93
2022-11-22T03:20:11.376Z,1.28
2022-11-22T03:22:37.767Z,1.63
2022-11-22T03:25:04.107Z,1.53
2022-11-22T03:27:30.470Z,1.29
2022-11-22T03:29:57.050Z,1.51
2022-11-22T03:32:23.419Z,1.51
2022-11-22T03:34:49.792Z,1.62
2022-11-22T03:37:16.124Z,1.64
2022-11-22T03:39:42.470Z,1.66
2022-11-22T03:42:08.878Z,1.52
2022-11-22T03:44:35.232Z,1.63
2022-11-22T03:47:01.606Z,1.59
2022-11-22T03:49:28.457Z,1.87
2022-11-22T03:51:55.075Z,1.45
2022-11-22T03:54:25.207Z,1.48
2022-11-22T03:56:51.795Z,1.30
2022-11-22T03:59:18.234Z,1.45
2022-11-22T04:01:44.762Z,1.58
2022-11-22T04:04:11.185Z,1.72
2022-11-22T04:06:37.519Z,1.77
2022-11-22T04:09:03.884Z,1.38
2022-11-22T04:11:30.303Z,1.96
2022-11-22T04:13:56.664Z,1.52
2022-11-22T04:16:22.979Z,1.52
2022-11-22T04:18:49.382Z,1.37
2022-11-22T04:21:15.761Z,1.53
2022-11-22T04:23:42.113Z,1.45
2022-11-22T04:26:08.692Z,1.41
2022-11-22T04:29:02.037Z,1.64
2022-11-22T04:31:21.466Z,1.57
2022-11-22T04:33:47.984Z,1.61
2022-11-22T04:36:14.362Z,1.78
2022-11-22T04:38:40.736Z,1.48
2022-11-22T04:41:07.094Z,1.34
2022-11-22T04:43:33.444Z,1.52
2022-11-22T04:45:59.784Z,1.56
2022-11-22T04:48:28.914Z,1.42
2022-11-22T04:50:55.299Z,1.45
2022-11-22T04:53:21.674Z,1.52
2022-11-22T04:55:48.020Z,1.80
2022-11-22T04:58:14.370Z,1.91
2022-11-22T05:00:40.860Z,1.58
2022-11-22T05:03:07.278Z,1.51
2022-11-22T05:05:33.686Z,1.65
2022-11-22T05:08:00.038Z,1.59
2022-11-22T05:10:27.184Z,1.68
2022-11-22T05:12:53.808Z,1.58
2022-11-22T05:15:20.153Z,1.56
2022-11-22T05:17:46.521Z,1.75
2022-11-22T05:20:12.925Z,1.63
2022-11-22T05:22:39.312Z,1.81
2022-11-22T05:25:05.698Z,1.95
2022-11-22T05:27:32.061Z,1.74
2022-11-22T05:29:58.461Z,1.57
2022-11-22T05:32:24.893Z,1.42
2022-11-22T05:34:51.243Z,1.93
2022-11-22T05:37:17.706Z,2.03
2022-11-22T05:39:44.088Z,1.55
2022-11-22T05:42:10.421Z,1.49
2022-11-22T05:44:36.800Z,1.92
2022-11-22T05:47:03.181Z,1.89
2022-11-22T05:49:29.750Z,1.78
2022-11-22T05:51:59.317Z,2.04
2022-11-22T05:54:25.703Z,1.59
2022-11-22T05:56:52.089Z,1.98
2022-11-22T05:59:18.526Z,1.88
2022-11-22T06:01:44.955Z,1.61
2022-11-22T06:04:11.413Z,1.81
2022-11-22T06:06:37.824Z,2.19
2022-11-22T06:09:04.128Z,1.66
2022-11-22T06:11:30.659Z,1.53
2022-11-22T06:13:57.060Z,1.73
2022-11-22T06:16:23.434Z,1.76
2022-11-22T06:18:49.753Z,1.53
2022-11-22T06:21:16.264Z,1.95
2022-11-22T06:23:42.649Z,1.84
2022-11-22T06:26:09.053Z,1.70
2022-11-22T06:28:35.516Z,1.60
2022-11-22T06:31:02.101Z,1.85
2022-11-22T06:33:28.460Z,2.02
2022-11-22T06:35:54.797Z,1.94
2022-11-22T06:38:21.196Z,1.98
2022-11-22T06:40:47.562Z,1.69
2022-11-22T06:43:13.888Z,1.62
2022-11-22T06:45:40.252Z,1.65
2022-11-22T06:48:06.647Z,1.77
2022-11-22T06:50:32.983Z,1.96
2022-11-22T06:52:59.312Z,1.76
2022-11-22T06:55:49.099Z,1.80
2022-11-22T06:58:12.088Z,1.53
2022-11-22T07:00:38.416Z,1.60
2022-11-22T07:03:04.853Z,1.66
2022-11-22T07:05:31.290Z,2.43
2022-11-22T07:08:04.529Z,2.29
2022-11-22T07:10:33.141Z,1.88
2022-11-22T07:12:59.751Z,1.77
2022-11-22T07:15:26.098Z,1.52
2022-11-22T07:17:52.495Z,1.82
2022-11-22T07:20:18.881Z,1.81
2022-11-22T07:22:45.286Z,1.63
2022-11-22T07:25:11.670Z,1.33
2022-11-22T07:27:38.072Z,1.53
2022-11-22T07:30:04.459Z,1.62
2022-11-22T07:32:30.839Z,2.00
2022-11-22T07:34:57.242Z,1.51
2022-11-22T07:37:23.677Z,1.67
2022-11-22T07:39:50.270Z,1.76
2022-11-22T07:42:16.651Z,1.74
2022-11-22T07:44:43.011Z,2.46
2022-11-22T07:47:09.530Z,1.64
2022-11-22T07:49:35.864Z,1.68
2022-11-22T07:52:02.241Z,1.77
2022-11-22T07:54:28.726Z,1.62
2022-11-22T07:56:55.109Z,1.37
2022-11-22T07:59:24.302Z,1.65
2022-11-22T08:01:50.781Z,1.47
2022-11-22T08:04:17.306Z,1.52
2022-11-22T08:06:43.704Z,1.67
2022-11-22T08:09:10.130Z,1.67
2022-11-22T08:11:36.684Z,1.28
2022-11-22T08:14:03.075Z,1.61
2022-11-22T08:16:29.492Z,1.58
2022-11-22T08:18:55.848Z,1.69
2022-11-22T08:21:22.273Z,1.29
2022-11-22T08:23:48.632Z,1.58
2022-11-22T08:26:15.037Z,1.38
2022-11-22T08:28:41.340Z,1.48
2022-11-22T08:31:07.769Z,1.60
2022-11-22T08:33:34.358Z,1.72
2022-11-22T08:36:00.798Z,2.12
2022-11-22T08:38:27.213Z,2.12
2022-11-22T08:40:53.633Z,2.71
2022-11-22T08:43:20.011Z,2.85
2022-11-22T08:45:46.408Z,1.40
2022-11-22T08:48:15.379Z,1.33
2022-11-22T08:50:44.155Z,1.27
2022-11-22T08:53:10.526Z,1.43
2022-11-22T08:55:38.313Z,1.83
2022-11-22T08:58:04.647Z,1.49
2022-11-22T09:00:33.556Z,1.80
2022-11-22T09:03:00.265Z,2.11
2022-11-22T09:05:26.824Z,1.87
2022-11-22T09:10:39.627Z,2.00
2022-11-22T09:13:05.996Z,2.03
2022-11-22T09:15:32.533Z,1.79
2022-11-22T09:18:01.649Z,1.89
2022-11-22T09:20:28.016Z,1.42
2022-11-22T09:22:54.399Z,1.57
2022-11-22T09:25:20.775Z,1.83
2022-11-22T09:27:47.183Z,1.87
2022-11-22T09:30:13.620Z,1.36
2022-11-22T09:32:40.012Z,1.97
2022-11-22T09:35:06.385Z,1.47
2022-11-22T09:37:32.730Z,1.77
2022-11-22T09:39:59.273Z,1.44
2022-11-22T09:42:25.683Z,1.58
2022-11-22T09:44:52.079Z,1.33
2022-11-22T09:47:18.477Z,1.51
2022-11-22T09:49:45.158Z,1.41
2022-11-22T09:52:11.562Z,1.40
2022-11-22T09:54:37.959Z,1.93
2022-11-22T09:57:04.327Z,1.43
2022-11-22T09:59:30.931Z,1.22
2022-11-22T10:02:03.426Z,1.24
2022-11-22T10:04:33.606Z,1.57
2022-11-22T10:07:00.057Z,1.60
2022-11-22T10:09:28.871Z,1.50
2022-11-22T10:11:55.524Z,1.91
2022-11-22T10:14:21.956Z,1.53
2022-11-22T10:16:51.087Z,1.47
2022-11-22T10:19:17.428Z,1.39
2022-11-22T10:21:46.784Z,1.79
2022-11-22T10:24:13.177Z,1.65
2022-11-22T10:26:39.521Z,1.63
2022-11-22T10:29:05.927Z,1.58
2022-11-22T10:31:32.273Z,1.54
2022-11-22T10:33:58.661Z,1.58
2022-11-22T10:36:24.988Z,1.67
2022-11-22T10:38:51.385Z,1.70
2022-11-22T10:41:17.818Z,1.92
2022-11-22T10:43:44.212Z,1.88
2022-11-22T10:46:10.586Z,1.43
2022-11-22T10:48:37.013Z,1.61
2022-11-22T10:51:03.383Z,1.54
2022-11-22T10:53:29.780Z,1.66
2022-11-22T10:55:56.273Z,1.72
2022-11-22T10:58:22.716Z,1.58
2022-11-22T11:00:49.178Z,1.59
2022-11-22T11:03:15.574Z,1.52
2022-11-22T11:06:00.939Z,1.73
2022-11-22T11:08:47.520Z,1.39
2022-11-22T11:11:14.761Z,1.65
2022-11-22T11:13:41.179Z,1.58
2022-11-22T11:16:07.546Z,1.35
2022-11-22T11:18:33.922Z,1.44
2022-11-22T11:21:00.360Z,1.28
2022-11-22T11:23:26.817Z,1.24
2022-11-22T11:25:53.262Z,2.40
2022-11-22T11:28:19.619Z,2.45
2022-11-22T11:30:46.107Z,1.76
2022-11-22T11:33:12.468Z,1.07
2022-11-22T11:35:38.947Z,0.92
2022-11-22T11:38:05.489Z,1.03
2022-11-22T11:40:31.839Z,0.92
2022-11-22T11:42:58.252Z,0.86
2022-11-22T11:45:24.629Z,0.72
2022-11-22T11:47:51.286Z,0.83
2022-11-22T11:50:23.586Z,0.82
2022-11-22T11:52:50.545Z,0.97
2022-11-22T11:55:17.000Z,1.20
2022-11-22T11:57:43.361Z,1.51
2022-11-22T12:00:09.830Z,1.64
2022-11-22T12:02:36.374Z,1.88
2022-11-22T12:05:02.906Z,2.02
2022-11-22T12:07:29.361Z,2.01
2022-11-22T12:09:55.837Z,1.74
2022-11-22T12:12:22.263Z,1.89
2022-11-22T12:15:10.304Z,5.19
2022-11-22T12:17:35.079Z,1.87
2022-11-22T12:20:01.497Z,1.59
2022-11-22T12:22:49.000Z,1.75
2022-11-22T12:25:32.292Z,1.69
2022-11-22T12:27:59.194Z,1.94
2022-11-22T12:30:25.694Z,2.40
2022-11-22T12:32:52.096Z,6.79
2022-11-22T12:35:18.484Z,2.58
2022-11-22T12:37:44.951Z,2.56
2022-11-22T12:40:12.923Z,1.95
2022-11-22T12:42:39.658Z,1.44
2022-11-22T12:45:06.071Z,1.44
2022-11-22T12:47:32.423Z,1.82
2022-11-22T12:49:58.836Z,1.45
2022-11-22T12:52:25.220Z,1.62
2022-11-22T12:54:51.632Z,1.50
2022-11-22T12:57:17.993Z,1.46
2022-11-22T12:59:44.465Z,1.40
2022-11-22T13:02:11.019Z,1.39
2022-11-22T13:04:37.526Z,1.27
2022-11-22T13:07:03.937Z,1.44
2022-11-22T13:09:30.498Z,1.25
2022-11-22T13:11:56.864Z,1.16
2022-11-22T13:14:23.270Z,1.21
2022-11-22T13:16:49.700Z,1.14
2022-11-22T13:19:16.352Z,1.20
2022-11-22T13:21:42.777Z,0.91
2022-11-22T13:24:09.157Z,0.94
2022-11-22T13:26:36.598Z,0.95
2022-11-22T13:29:06.610Z,1.27
2022-11-22T13:31:37.952Z,0.79
2022-11-22T13:34:07.122Z,0.69
2022-11-22T13:36:33.495Z,0.68
2022-11-22T13:38:59.903Z,0.85
2022-11-22T13:41:26.314Z,0.72
2022-11-22T13:43:52.698Z,0.60
2022-11-22T13:46:19.304Z,0.78
2022-11-22T13:48:45.698Z,0.78
2022-11-22T13:51:12.401Z,0.88
2022-11-22T13:53:38.811Z,1.19
2022-11-22T13:56:08.201Z,0.99
2022-11-22T13:58:35.675Z,0.89
2022-11-22T14:01:02.079Z,0.98
2022-11-22T14:03:28.541Z,0.91
2022-11-22T14:05:54.912Z,1.13
2022-11-22T14:08:21.615Z,1.01
2022-11-22T14:10:48.026Z,1.23
2022-11-22T14:13:14.517Z,1.27
2022-11-22T14:15:41.219Z,1.01
2022-11-22T14:18:07.654Z,1.09
2022-11-22T14:20:34.031Z,1.12
2022-11-22T14:23:00.428Z,1.05
2022-11-22T14:25:26.910Z,0.91
2022-11-22T14:27:53.522Z,1.04
2022-11-22T14:30:19.856Z,1.02
2022-11-22T14:32:46.418Z,1.18
2022-11-22T14:35:12.886Z,1.03
2022-11-22T14:37:39.268Z,1.10
2022-11-22T14:40:05.737Z,1.00
2022-11-22T14:42:32.401Z,1.44
2022-11-22T14:44:58.827Z,1.33
2022-11-22T14:47:25.321Z,1.48
2022-11-22T14:49:51.681Z,1.19
2022-11-22T14:52:18.215Z,0.93
2022-11-22T14:54:44.594Z,0.92
2022-11-22T14:57:10.985Z,1.04
2022-11-22T14:59:37.316Z,1.01
2022-11-22T15:02:03.793Z,1.01
2022-11-22T15:09:10.192Z,0.94
2022-11-22T15:09:27.905Z,1.16
2022-11-22T15:10:03.160Z,1.12
2022-11-22T15:12:29.913Z,0.86
2022-11-22T15:14:56.360Z,0.92
2022-11-22T15:58:58.498Z,0.88
2022-11-22T16:01:25.132Z,1.10
2022-11-22T16:03:51.595Z,3.04
2022-11-22T16:06:18.016Z,1.40
2022-11-22T16:08:44.358Z,1.23
2022-11-22T16:11:10.712Z,1.23
2022-11-22T16:13:37.113Z,1.23
2022-11-22T16:16:03.479Z,1.23
2022-11-22T16:18:30.065Z,1.15
2022-11-22T16:20:56.497Z,1.84
2022-11-22T16:23:22.878Z,2.26
2022-11-22T16:25:49.320Z,2.37
2022-11-22T16:28:15.691Z,1.91
2022-11-22T16:30:42.212Z,2.55
2022-11-22T16:33:08.567Z,2.36
2022-11-22T16:35:34.995Z,1.95
2022-11-22T16:38:01.548Z,1.36
2022-11-22T16:40:28.063Z,1.80
2022-11-22T16:42:54.451Z,1.55
2022-11-22T16:45:20.959Z,1.58
2022-11-22T16:47:54.615Z,1.52
2022-11-22T16:50:30.089Z,1.11
2022-11-22T16:53:00.108Z,1.21
2022-11-22T16:55:28.994Z,1.74
2022-11-22T16:57:55.324Z,1.15
2022-11-22T17:00:21.696Z,1.21
2022-11-22T17:02:48.087Z,1.03
2022-11-22T17:05:14.432Z,2.01
2022-11-22T17:07:40.912Z,1.73
2022-11-22T17:10:07.321Z,1.82
2022-11-22T17:12:34.056Z,1.14
2022-11-22T17:15:00.450Z,1.26
2022-11-22T17:17:26.897Z,1.18
2022-11-22T17:19:53.948Z,1.12
2022-11-22T17:22:20.453Z,1.28
2022-11-22T17:24:46.988Z,1.01
2022-11-22T17:27:13.342Z,1.02
2022-11-22T17:29:55.003Z,1.09
2022-11-22T17:32:21.450Z,1.36
2022-11-22T17:34:47.856Z,1.34
2022-11-22T17:37:14.314Z,1.46
2022-11-22T17:39:40.754Z,1.87
2022-11-22T17:42:07.086Z,1.47
2022-11-22T17:44:33.420Z,1.14
2022-11-22T17:46:59.903Z,1.64
2022-11-22T17:49:26.296Z,2.78
2022-11-22T17:51:54.869Z,2.37
2022-11-22T17:54:21.310Z,2.57
2022-11-22T17:56:47.656Z,2.23
2022-11-22T17:59:14.400Z,1.34
2022-11-22T18:01:40.767Z,1.37
2022-11-22T18:04:07.150Z,1.45
2022-11-22T18:06:33.555Z,1.23
2022-11-22T18:08:59.912Z,1.28
2022-11-22T18:11:26.269Z,1.10
2022-11-22T18:13:52.684Z,1.19
2022-11-22T18:16:19.030Z,1.34
2022-11-22T18:18:57.403Z,1.21
2022-11-22T18:21:24.562Z,1.15
2022-11-22T18:23:50.915Z,1.27
2022-11-22T18:26:38.364Z,1.46
2022-11-22T18:31:52.559Z,1.29
2022-11-22T18:34:21.798Z,1.16
2022-11-22T18:36:57.695Z,1.34
2022-11-22T18:39:29.066Z,2.28
2022-11-22T18:41:55.658Z,1.55
2022-11-22T18:44:22.167Z,1.75
2022-11-22T18:46:48.607Z,1.63
2022-11-22T18:49:15.069Z,1.46
2022-11-22T18:51:41.454Z,0.91
2022-11-22T18:54:07.840Z,0.99
2022-11-22T18:56:34.158Z,0.96
2022-11-22T18:59:00.566Z,0.98
2022-11-22T19:01:26.950Z,1.31
2022-11-22T19:03:53.362Z,1.22
2022-11-22T19:06:19.741Z,1.00
2022-11-22T19:08:46.151Z,0.82
2022-11-22T19:11:12.516Z,0.68
2022-11-22T19:13:39.673Z,1.03
2022-11-22T19:16:06.031Z,4.87
2022-11-22T19:18:35.743Z,2.81
2022-11-22T19:21:02.947Z,2.17
2022-11-22T19:23:29.831Z,3.28
2022-11-22T19:25:59.052Z,7.61
2022-11-22T19:28:25.473Z,5.90
2022-11-22T19:30:53.530Z,6.74
2022-11-22T19:33:19.917Z,12.24
2022-11-22T19:35:46.294Z,4.32
2022-11-22T19:38:12.621Z,2.33
2022-11-22T19:40:39.037Z,1.80
2022-11-22T19:43:05.383Z,1.92
2022-11-22T19:45:31.754Z,3.51
2022-11-22T19:47:58.314Z,1.75
2022-11-22T19:50:24.694Z,1.32
2022-11-22T19:52:51.034Z,2.66
2022-11-22T19:55:17.386Z,4.30
2022-11-22T19:57:43.780Z,2.58
2022-11-22T20:00:12.245Z,1.52
2022-11-22T20:02:38.671Z,0.73
2022-11-22T20:05:05.059Z,0.53
2022-11-22T20:07:31.515Z,0.75
2022-11-22T20:09:58.309Z,0.44
2022-11-22T20:12:24.846Z,0.32
2022-11-22T20:14:51.186Z,0.29
2022-11-22T20:17:17.524Z,0.33
2022-11-22T20:19:43.853Z,0.45
2022-11-22T20:22:10.274Z,0.63
2022-11-22T20:24:36.784Z,0.39
2022-11-22T20:27:03.194Z,0.52
2022-11-22T20:29:29.608Z,0.59
2022-11-22T20:31:56.041Z,2.08
2022-11-22T20:34:22.449Z,1.99
2022-11-22T20:36:48.834Z,1.85
2022-11-22T20:39:18.209Z,2.07
2022-11-22T20:41:44.606Z,1.40
2022-11-22T20:44:11.065Z,1.08
2022-11-22T20:46:37.583Z,1.46
2022-11-22T20:49:04.089Z,1.14
2022-11-22T20:51:30.523Z,1.08
2022-11-22T20:53:56.887Z,1.03
2022-11-22T20:56:23.301Z,1.12
2022-11-22T20:58:49.854Z,1.42
2022-11-22T21:01:16.343Z,1.24
2022-11-22T21:03:42.811Z,1.05
2022-11-22T21:06:12.496Z,0.93
2022-11-22T21:08:38.897Z,1.16
2022-11-22T21:11:07.747Z,1.25
2022-11-22T21:13:34.347Z,1.85
2022-11-22T21:16:00.852Z,1.58
2022-11-22T21:18:27.682Z,1.27
2022-11-22T21:20:54.070Z,1.29
2022-11-22T21:23:20.614Z,1.15
2022-11-22T21:25:47.051Z,1.09
2022-11-22T21:28:13.392Z,1.09
2022-11-22T21:30:39.770Z,1.21
2022-11-22T21:33:06.336Z,1.10
2022-11-22T21:35:32.714Z,1.17
2022-11-22T21:37:59.068Z,1.11
2022-11-22T21:40:25.437Z,1.52
2022-11-22T21:42:51.884Z,1.37
2022-11-22T21:45:18.405Z,1.13
2022-11-22T21:47:44.787Z,1.03
2022-11-22T21:50:11.952Z,1.19
2022-11-22T21:52:38.449Z,1.11
2022-11-22T21:55:04.871Z,1.07
2022-11-22T21:57:31.285Z,1.11
2022-11-22T21:59:57.751Z,1.13
2022-11-22T22:02:28.474Z,1.12
2022-11-22T22:04:54.839Z,1.13
2022-11-22T22:07:37.026Z,1.19
2022-11-22T22:10:07.672Z,0.97
2022-11-22T22:12:34.059Z,1.24
2022-11-22T22:15:00.491Z,1.04
2022-11-22T22:17:27.129Z,1.04
2022-11-22T22:19:53.514Z,1.22
2022-11-22T22:22:19.853Z,1.03
2022-11-22T22:24:46.384Z,0.99
2022-11-22T22:27:12.881Z,0.76
2022-11-22T22:29:41.858Z,0.75
2022-11-22T22:32:10.709Z,0.69
2022-11-22T22:34:37.326Z,0.65
2022-11-22T22:37:03.735Z,0.67
2022-11-22T22:39:30.639Z,0.77
2022-11-22T22:41:57.352Z,0.77
2022-11-22T22:44:23.770Z,0.73
2022-11-22T22:46:50.400Z,0.76
2022-11-22T22:49:16.848Z,0.69
2022-11-22T22:51:43.242Z,0.69
2022-11-22T22:54:09.670Z,0.64
2022-11-22T22:56:36.056Z,0.83
2022-11-22T22:59:05.168Z,0.77
2022-11-22T23:01:31.577Z,0.66
2022-11-22T23:03:58.009Z,0.75
2022-11-22T23:06:24.397Z,0.54
2022-11-22T23:08:50.836Z,0.65
2022-11-22T23:11:23.208Z,0.63
2022-11-22T23:13:49.640Z,1.00
2022-11-22T23:16:16.019Z,0.85
2022-11-22T23:18:42.367Z,1.14
2022-11-22T23:21:08.710Z,1.12
2022-11-22T23:23:35.195Z,1.17
2022-11-22T23:26:01.512Z,1.16
2022-11-22T23:28:30.865Z,1.00
2022-11-22T23:30:57.335Z,0.76
2022-11-22T23:33:23.701Z,0.75
2022-11-22T23:35:50.110Z,0.75
2022-11-22T23:38:16.508Z,1.02
2022-11-22T23:40:42.887Z,0.79
2022-11-22T23:43:09.316Z,0.73
2022-11-22T23:45:35.771Z,0.73
2022-11-22T23:48:02.157Z,0.63
2022-11-22T23:50:28.515Z,0.91
2022-11-22T23:52:54.903Z,1.10
2022-11-22T23:55:21.334Z,0.80
2022-11-22T23:57:47.674Z,0.87
